Time;durP1;ratioP1;P1;durP2;ratioP2;P2;SDS_P1;SDS_P2;PMS_P1;PMS_P2;Temp;Humidity;BMP_temperature;BMP_pressure;BME280_temperature;BME280_humidity;BME280_pressure;Samples;Min_cycle;Max_cycle;Signal;HPM_P1;HPM_P2
2021/06/24 00:01:26;;;;;;;9.68;8.77;;;16.50;99.90;;;17.10;100.00;98045.59;5211875;28;20204;-57
2021/06/24 00:04:00;;;;;;;11.45;10.30;;;16.60;99.90;;;17.17;100.00;98050.97;5224330;28;20212;-62
2021/06/24 00:06:33;;;;;;;10.25;9.10;;;16.60;99.90;;;17.24;100.00;98052.94;5222377;28;20219;-61
2021/06/24 00:09:06;;;;;;;10.45;9.45;;;16.70;99.90;;;17.31;100.00;98060.06;5219323;28;20662;-59
2021/06/24 00:11:41;;;;;;;11.18;9.50;;;16.70;99.90;;;17.34;100.00;98055.91;5217236;28;20193;-59
2021/06/24 00:14:14;;;;;;;11.93;10.07;;;16.80;99.90;;;17.47;100.00;98059.75;5222955;28;20227;-62
2021/06/24 00:16:47;;;;;;;11.50;9.55;;;16.90;99.90;;;17.60;100.00;98067.91;5217127;28;20807;-59
2021/06/24 00:19:20;;;;;;;9.98;8.98;;;16.90;99.90;;;17.58;100.00;98070.44;5219699;28;20196;-63
2021/06/24 00:21:53;;;;;;;9.48;8.45;;;16.80;99.90;;;17.56;100.00;98077.25;5225349;28;20197;-59
2021/06/24 00:24:26;;;;;;;10.18;8.05;;;16.80;99.90;;;17.57;100.00;98081.63;5210077;28;20201;-61
2021/06/24 00:27:00;;;;;;;8.40;7.57;;;16.80;99.90;;;17.52;100.00;98085.75;5224143;28;20692;-61
2021/06/24 00:29:34;;;;;;;7.82;7.00;;;16.70;99.90;;;17.42;100.00;98084.56;5222510;28;20202;-59
2021/06/24 00:32:08;;;;;;;7.43;6.60;;;16.70;99.90;;;17.38;100.00;98082.72;5213181;28;20189;-59
2021/06/24 00:34:41;;;;;;;7.50;6.00;;;16.60;99.90;;;17.24;100.00;98083.94;5207137;28;20224;-58
2021/06/24 00:37:14;;;;;;;7.07;6.47;;;16.50;99.90;;;17.22;100.00;98090.75;5217587;28;20233;-60
2021/06/24 00:39:47;;;;;;;7.10;6.50;;;16.50;99.90;;;17.16;100.00;98093.13;5223502;28;20205;-60
2021/06/24 00:42:22;;;;;;;7.40;6.80;;;16.40;99.90;;;17.18;100.00;98084.59;5214319;28;20205;-58
2021/06/24 00:44:55;;;;;;;7.25;6.65;;;16.50;99.90;;;17.16;100.00;98091.41;5208251;28;20211;-60
2021/06/24 00:47:28;;;;;;;7.30;6.60;;;16.40;99.90;;;17.07;100.00;98091.97;5222367;28;20220;-58
2021/06/24 00:50:01;;;;;;;7.72;6.93;;;16.40;99.90;;;17.04;100.00;98096.16;5225688;28;20589;-59
2021/06/24 00:52:34;;;;;;;8.20;7.40;;;16.30;99.90;;;17.02;100.00;98096.09;5220998;28;20304;-60
2021/06/24 00:55:09;;;;;;;9.38;8.07;;;16.30;99.90;;;17.01;100.00;98099.50;5224356;28;20221;-59
2021/06/24 00:57:44;;;;;;;7.95;7.22;;;16.40;99.90;;;16.97;100.00;98095.06;5217881;28;20217;-60
2021/06/24 01:00:18;;;;;;;7.55;6.85;;;16.30;99.90;;;17.01;100.00;98102.09;5224872;28;20199;-56
2021/06/24 01:02:52;;;;;;;7.60;6.85;;;16.40;99.90;;;17.06;100.00;98105.72;5215564;28;20193;-57
2021/06/24 01:05:25;;;;;;;7.85;7.15;;;16.40;99.90;;;17.13;100.00;98093.03;5218280;28;20189;-58
2021/06/24 01:07:58;;;;;;;7.85;7.15;;;16.50;99.90;;;17.13;100.00;98093.03;5225846;28;20217;-59
2021/06/24 01:10:31;;;;;;;7.95;7.15;;;16.40;99.90;;;17.16;100.00;98093.13;5229280;28;20201;-56
2021/06/24 01:13:06;;;;;;;7.65;6.95;;;16.50;99.90;;;17.16;100.00;98096.59;5218689;28;20593;-60
2021/06/24 01:15:41;;;;;;;7.75;7.15;;;16.50;99.90;;;17.15;100.00;98101.72;5226958;28;20696;-60
2021/06/24 01:18:14;;;;;;;7.57;6.97;;;16.50;99.90;;;17.13;100.00;98091.31;5220472;28;20299;-57
2021/06/24 01:20:47;;;;;;;7.72;7.00;;;16.50;99.90;;;17.15;100.00;98092.25;5217866;28;20190;-60
2021/06/24 01:23:20;;;;;;;9.40;7.53;;;16.50;99.90;;;17.18;100.00;98094.06;5224725;28;20201;-59
2021/06/24 01:25:54;;;;;;;7.18;6.50;;;16.50;99.90;;;17.07;100.00;98097.13;5213068;28;20218;-59
2021/06/24 01:28:27;;;;;;;6.50;6.00;;;16.40;99.90;;;17.02;100.00;98097.81;5223809;28;20201;-58
2021/06/24 01:31:01;;;;;;;7.50;6.80;;;16.30;99.90;;;17.06;100.00;98095.41;5233068;28;20203;-59
2021/06/24 01:33:34;;;;;;;7.05;6.45;;;16.40;99.90;;;17.10;100.00;98092.06;5225978;28;20202;-61
2021/06/24 01:36:08;;;;;;;7.10;6.30;;;16.40;99.90;;;17.09;100.00;98090.34;5220957;28;20225;-58
2021/06/24 01:38:44;;;;;;;6.80;6.03;;;16.40;99.90;;;17.03;100.00;98092.72;5213376;28;20196;-58
2021/06/24 01:41:18;;;;;;;6.68;6.15;;;16.30;99.90;;;16.98;100.00;98091.66;5225902;28;20667;-56
2021/06/24 01:43:52;;;;;;;6.78;6.18;;;16.30;99.90;;;17.00;100.00;98090.00;5211986;28;20196;-57
2021/06/24 01:46:25;;;;;;;6.70;6.10;;;16.30;99.90;;;17.01;100.00;98086.59;5214187;28;20213;-61
2021/06/24 01:48:58;;;;;;;6.60;6.05;;;16.30;99.90;;;17.08;100.00;98088.59;5208322;28;20551;-58
2021/06/24 01:51:31;;;;;;;6.38;5.88;;;16.30;99.90;;;17.11;100.00;98096.44;5222301;28;20203;-58
2021/06/24 01:54:05;;;;;;;7.10;6.50;;;16.30;99.90;;;17.14;100.00;98092.19;5221014;28;20193;-57
2021/06/24 01:56:39;;;;;;;6.43;5.93;;;16.30;99.90;;;17.11;100.00;98083.53;5218978;28;20218;-60
2021/06/24 01:59:12;;;;;;;8.00;7.20;;;16.30;99.90;;;17.03;100.00;98074.63;5222662;28;20192;-60
2021/06/24 02:01:45;;;;;;;6.93;6.35;;;16.30;99.90;;;17.00;100.00;98071.06;5213266;28;20215;-58
2021/06/24 02:04:18;;;;;;;7.78;7.07;;;16.30;99.90;;;17.04;100.00;98076.38;5220975;28;20281;-58
2021/06/24 02:06:51;;;;;;;7.63;7.03;;;16.30;99.90;;;17.05;100.00;98078.16;5220742;28;20213;-57
2021/06/24 02:09:24;;;;;;;8.30;7.40;;;16.40;99.90;;;17.07;100.00;98076.47;5225576;28;20194;-60
2021/06/24 02:12:00;;;;;;;7.20;6.70;;;16.40;99.90;;;17.12;100.00;98068.91;5211904;28;20200;-58
2021/06/24 02:14:33;;;;;;;7.28;6.68;;;16.40;99.90;;;17.09;100.00;98069.66;5218643;28;20227;-61
2021/06/24 02:17:06;;;;;;;7.60;6.90;;;16.40;99.90;;;17.08;100.00;98077.34;5224852;28;20224;-58
2021/06/24 02:19:39;;;;;;;7.72;6.93;;;16.30;99.90;;;17.13;100.00;98067.19;5207880;28;20194;-58
2021/06/24 02:22:12;;;;;;;7.35;6.65;;;16.40;99.90;;;17.13;100.00;98062.03;5225553;28;20198;-60
2021/06/24 02:24:45;;;;;;;7.30;6.55;;;16.40;99.90;;;17.16;100.00;98062.13;5222649;28;20662;-55
2021/06/24 02:27:19;;;;;;;10.10;7.93;;;16.40;99.90;;;17.16;100.00;98049.22;5219246;28;20244;-54
2021/06/24 02:29:53;;;;;;;7.30;6.57;;;16.40;99.90;;;17.05;100.00;98039.41;5224380;28;20193;-58
2021/06/24 02:32:26;;;;;;;7.63;6.82;;;16.30;99.90;;;17.05;100.00;98042.00;5208241;28;20205;-57
2021/06/24 02:35:00;;;;;;;7.78;7.07;;;16.30;99.90;;;17.06;100.00;98038.56;5211775;28;20567;-56
2021/06/24 02:37:33;;;;;;;7.15;6.47;;;16.30;99.90;;;17.08;100.00;98030.84;5226830;28;20255;-58
2021/06/24 02:40:09;;;;;;;7.32;6.70;;;16.30;99.90;;;17.11;100.00;98036.13;5215164;28;20193;-55
2021/06/24 02:42:45;;;;;;;6.90;6.30;;;16.30;99.90;;;17.13;100.00;98031.91;5215673;28;20190;-56
2021/06/24 02:45:18;;;;;;;7.68;7.00;;;16.30;99.90;;;17.11;100.00;98029.28;5216304;28;20207;-55
2021/06/24 02:47:51;;;;;;;7.40;6.80;;;16.20;99.90;;;17.10;100.00;98024.06;5222663;28;20216;-59
2021/06/24 02:50:25;;;;;;;7.13;6.53;;;16.30;99.90;;;17.06;100.00;98028.25;5210956;28;20236;-57
2021/06/24 02:52:59;;;;;;;7.97;6.35;;;16.30;99.90;;;17.01;100.00;98026.31;5216864;28;20685;-54
2021/06/24 02:55:32;;;;;;;6.80;6.20;;;16.20;99.90;;;16.99;100.00;98015.94;5222031;28;20207;-57
2021/06/24 02:58:06;;;;;;;6.32;5.43;;;16.20;99.90;;;16.95;100.00;98016.66;5226521;28;20193;-58
2021/06/24 03:00:39;;;;;;;6.80;6.20;;;16.20;99.90;;;16.93;100.00;98013.13;5226112;28;20680;-56
2021/06/24 03:03:12;;;;;;;7.47;6.88;;;16.20;99.90;;;16.93;100.00;98017.44;5218971;28;20641;-61
2021/06/24 03:05:45;;;;;;;7.85;7.15;;;16.30;99.90;;;16.89;100.00;98012.16;5218039;28;20657;-55
2021/06/24 03:08:18;;;;;;;8.55;7.75;;;16.20;99.90;;;16.86;100.00;98016.34;5217135;28;20189;-61
2021/06/24 03:10:51;;;;;;;7.40;6.80;;;16.20;99.90;;;16.84;100.00;98015.41;5223775;28;20201;-56
2021/06/24 03:13:26;;;;;;;7.03;6.43;;;16.10;99.90;;;16.82;100.00;98012.75;5220159;28;20202;-56
2021/06/24 03:15:59;;;;;;;7.30;6.47;;;16.10;99.90;;;16.84;100.00;98005.97;5214648;28;20263;-57
2021/06/24 03:18:32;;;;;;;7.13;6.43;;;16.10;99.90;;;16.84;100.00;97999.91;5218784;28;20205;-60
2021/06/24 03:21:05;;;;;;;7.82;7.22;;;16.10;99.90;;;16.80;100.00;97998.06;5222897;28;20198;-58
2021/06/24 03:23:38;;;;;;;7.30;6.70;;;16.00;99.90;;;16.78;100.00;97994.53;5206613;28;20562;-57
2021/06/24 03:26:11;;;;;;;7.22;6.55;;;16.00;99.90;;;16.73;100.00;97985.72;5218257;28;20259;-57
2021/06/24 03:28:46;;;;;;;8.13;7.43;;;16.00;99.90;;;16.71;100.00;97990.84;5224622;28;20190;-56
2021/06/24 03:31:19;;;;;;;7.80;7.20;;;15.90;99.90;;;16.69;100.00;97978.72;5224501;28;20199;-58
2021/06/24 03:33:53;;;;;;;7.55;6.95;;;15.90;99.90;;;16.66;100.00;97975.19;5225091;28;20251;-61
2021/06/24 03:36:26;;;;;;;7.28;6.57;;;15.90;99.90;;;16.65;100.00;97973.44;5215415;28;20315;-54
2021/06/24 03:38:59;;;;;;;6.80;6.30;;;15.80;99.90;;;16.61;100.00;97971.56;5214513;28;20563;-57
2021/06/24 03:41:32;;;;;;;9.68;8.55;;;15.80;99.90;;;16.57;100.00;97968.84;5225019;28;20767;-58
2021/06/24 03:44:07;;;;;;;8.70;7.90;;;15.80;99.90;;;16.58;100.00;97961.13;5224323;28;20590;-58
2021/06/24 03:46:40;;;;;;;9.68;8.77;;;15.80;99.90;;;16.58;100.00;97973.16;5212878;28;20212;-57
2021/06/24 03:49:13;;;;;;;9.80;8.85;;;15.80;99.90;;;16.61;100.00;97981.88;5225878;28;20219;-60
2021/06/24 03:51:46;;;;;;;8.52;7.72;;;15.90;99.90;;;16.73;100.00;97990.88;5213694;28;20198;-61
2021/06/24 03:54:19;;;;;;;8.27;7.47;;;15.90;99.90;;;16.74;100.00;97978.06;5215485;28;20648;-58
2021/06/24 03:56:52;;;;;;;8.00;7.25;;;15.90;99.90;;;16.78;100.00;97976.47;5220655;28;20699;-59
2021/06/24 03:59:26;;;;;;;9.35;8.55;;;16.00;99.90;;;16.81;100.00;97971.41;5215811;28;20201;-56
2021/06/24 04:01:59;;;;;;;9.35;8.45;;;16.00;99.90;;;16.87;100.00;97961.28;5219884;28;20188;-57
2021/06/24 04:04:32;;;;;;;9.95;8.55;;;15.90;99.90;;;16.89;100.00;97963.09;5215128;28;20193;-57
2021/06/24 04:07:05;;;;;;;9.68;8.80;;;16.00;99.90;;;16.86;100.00;97959.56;5223886;28;20300;-58
2021/06/24 04:09:38;;;;;;;10.32;9.43;;;16.00;99.90;;;16.87;100.00;97959.59;5217712;28;20553;-56
2021/06/24 04:12:12;;;;;;;11.23;10.23;;;16.00;99.90;;;17.02;100.00;97963.50;5222556;28;20199;-59
2021/06/24 04:14:46;;;;;;;10.23;9.27;;;16.10;99.90;;;17.03;100.00;97966.16;5219004;28;20578;-63
2021/06/24 04:17:19;;;;;;;9.90;9.00;;;16.00;99.90;;;17.03;100.00;97963.56;5217075;28;20224;-66
2021/06/24 04:19:52;;;;;;;9.27;8.48;;;16.00;99.90;;;17.09;100.00;97971.53;5213535;28;20190;-63
2021/06/24 04:22:26;;;;;;;8.88;8.13;;;16.10;99.90;;;17.07;100.00;97970.59;5214793;28;20433;-64
2021/06/24 04:24:59;;;;;;;10.00;9.20;;;16.00;99.90;;;17.08;100.00;97969.78;5219181;28;20207;-63
2021/06/24 04:27:32;;;;;;;9.45;8.55;;;16.00;99.90;;;17.07;100.00;97959.38;5220745;28;20223;-65
2021/06/24 04:30:09;;;;;;;9.02;8.32;;;16.00;99.90;;;17.10;100.00;97972.41;5217558;28;20204;-64
2021/06/24 04:32:42;;;;;;;9.82;9.02;;;16.00;99.90;;;16.97;100.00;97976.28;5216024;28;20204;-64
2021/06/24 04:35:16;;;;;;;10.25;9.30;;;16.00;99.90;;;16.91;100.00;97975.19;5215010;28;20193;-63
2021/06/24 04:37:49;;;;;;;10.50;9.63;;;16.00;99.90;;;16.81;100.00;97974.88;5225475;28;20224;-65
2021/06/24 04:40:22;;;;;;;11.27;10.32;;;15.90;99.90;;;16.93;100.00;97973.53;5224187;28;20205;-64
2021/06/24 04:42:55;;;;;;;11.18;9.93;;;16.10;99.90;;;17.07;100.00;97973.16;5235296;28;20197;-67
2021/06/24 04:45:30;;;;;;;11.57;10.52;;;16.20;99.90;;;17.10;100.00;97975.84;5222761;28;20193;-62
2021/06/24 04:48:05;;;;;;;9.25;8.45;;;16.20;99.90;;;17.21;100.00;97980.50;5227898;28;20201;-65
2021/06/24 04:50:38;;;;;;;9.60;8.80;;;16.30;99.90;;;17.32;100.00;97989.47;5223409;28;20200;-63
2021/06/24 04:53:11;;;;;;;8.48;7.75;;;16.40;99.90;;;17.36;100.00;97986.16;5221229;28;20204;-64
2021/06/24 04:55:44;;;;;;;8.93;8.13;;;16.40;99.90;;;17.29;100.00;97979.94;5225104;28;20197;-62
2021/06/24 04:58:17;;;;;;;8.82;8.02;;;16.40;99.90;;;17.40;100.00;97982.88;5226240;28;20216;-63
2021/06/24 05:00:52;;;;;;;8.68;7.88;;;16.40;99.90;;;17.44;100.00;97987.28;5217775;28;20227;-61
2021/06/24 05:03:25;;;;;;;9.75;8.98;;;16.50;99.90;;;17.40;100.00;97992.28;5227559;28;20200;-65
2021/06/24 05:05:58;;;;;;;8.55;7.95;;;16.40;99.90;;;17.31;100.00;97982.53;5216628;28;20671;-61
2021/06/24 05:08:32;;;;;;;8.55;7.88;;;16.30;99.90;;;17.21;100.00;97985.66;5219968;28;20195;-67
2021/06/24 05:11:06;;;;;;;8.85;8.15;;;16.20;99.90;;;17.16;100.00;97976.88;5224041;28;20189;-60
2021/06/24 05:13:39;;;;;;;7.60;7.03;;;16.20;99.90;;;17.41;100.00;97976.84;5217837;28;20202;-58
2021/06/24 05:16:13;;;;;;;8.82;8.13;;;16.60;99.90;;;17.77;100.00;97974.56;5221141;28;20587;-58
2021/06/24 05:18:47;;;;;;;7.95;7.28;;;16.90;99.90;;;18.07;100.00;97965.09;5221733;28;20303;-58
2021/06/24 05:21:20;;;;;;;6.10;5.60;;;17.10;99.90;;;18.37;100.00;97984.09;5213369;28;20200;-61
2021/06/24 05:23:53;;;;;;;5.57;5.18;;;17.30;99.90;;;18.93;100.00;97973.56;5227126;28;20205;-59
2021/06/24 05:26:26;;;;;;;4.70;4.40;;;17.70;99.90;;;19.48;100.00;97976.63;5212888;28;20221;-59
2021/06/24 05:28:59;;;;;;;5.15;4.75;;;17.90;99.90;;;19.67;97.29;97977.97;5216924;28;20666;-55
2021/06/24 05:31:34;;;;;;;3.90;3.60;;;18.00;99.90;;;19.84;93.57;97983.56;5218009;28;20201;-57
2021/06/24 05:34:07;;;;;;;4.13;3.85;;;18.10;99.90;;;20.11;93.09;97985.88;5208381;28;20654;-58
2021/06/24 05:36:40;;;;;;;4.13;3.50;;;18.40;99.90;;;20.49;91.23;97984.06;5223293;28;20789;-58
2021/06/24 05:39:13;;;;;;;4.03;3.72;;;18.60;99.90;;;20.74;88.43;97989.75;5224911;28;20219;-57
2021/06/24 05:41:47;;;;;;;3.33;3.13;;;18.90;99.90;;;20.59;83.67;97986.03;5219473;28;20568;-59
2021/06/24 05:44:20;;;;;;;3.45;3.15;;;18.70;99.90;;;20.47;85.33;97991.81;5213299;28;20679;-57
2021/06/24 05:46:55;;;;;;;3.72;3.25;;;18.40;99.90;;;20.21;87.58;97993.88;5217957;28;20228;-61
2021/06/24 05:49:29;;;;;;;3.88;3.67;;;18.20;99.90;;;19.95;89.60;98001.13;5216645;28;20205;-60
2021/06/24 05:52:02;;;;;;;3.95;3.75;;;18.10;99.90;;;19.60;89.40;98005.44;5223469;28;20205;-60
2021/06/24 05:54:35;;;;;;;3.97;3.78;;;17.90;99.90;;;19.41;90.58;98005.84;5219418;28;20572;-57
2021/06/24 05:57:08;;;;;;;4.20;3.90;;;17.80;99.90;;;19.33;92.22;97997.88;5220101;28;20249;-57
2021/06/24 05:59:41;;;;;;;4.05;3.72;;;17.70;99.90;;;19.22;93.64;97995.00;5222782;28;20200;-58
2021/06/24 06:02:16;;;;;;;4.32;4.03;;;17.70;99.90;;;19.00;94.30;97992.72;5210225;28;20193;-57
2021/06/24 06:04:49;;;;;;;4.50;4.10;;;17.60;99.90;;;19.19;95.46;97994.06;5214244;28;20204;-55
2021/06/24 06:07:22;;;;;;;4.10;3.70;;;17.80;99.90;;;19.28;94.60;97989.97;5215100;28;20573;-57
2021/06/24 06:09:55;;;;;;;4.13;3.90;;;17.80;99.90;;;19.32;92.81;97988.38;5222907;28;20197;-56
2021/06/24 06:12:28;;;;;;;3.92;3.72;;;17.90;99.90;;;19.50;91.62;97986.19;5216982;28;20202;-57
2021/06/24 06:15:01;;;;;;;3.85;3.65;;;17.90;99.90;;;19.59;93.07;97980.34;5214683;28;20572;-58
2021/06/24 06:17:36;;;;;;;4.78;4.47;;;18.00;99.90;;;19.51;94.13;97971.50;5215627;28;20701;-55
2021/06/24 06:20:11;;;;;;;4.18;3.70;;;18.00;99.90;;;20.23;90.46;97979.22;5225063;28;20231;-57
2021/06/24 06:22:44;;;;;;;4.75;4.35;;;18.40;99.90;;;20.84;89.26;97960.53;5214378;28;20212;-58
2021/06/24 06:25:17;;;;;;;4.57;4.18;;;18.80;99.90;;;21.66;85.60;97980.97;5222277;28;20198;-58
2021/06/24 06:27:50;;;;;;;3.90;3.60;;;19.40;99.90;;;21.98;81.47;97973.63;5217575;28;20564;-58
2021/06/24 06:30:25;;;;;;;3.78;3.50;;;19.80;99.90;;;22.78;80.83;97964.19;5220203;28;20223;-71
2021/06/24 06:33:01;;;;;;;4.20;3.42;;;20.40;99.90;;;23.12;72.34;97981.97;5211010;28;20374;-71
2021/06/24 06:35:34;;;;;;;4.25;3.50;;;20.90;99.90;;;23.22;74.74;97977.69;5219130;28;20203;-57
2021/06/24 06:38:07;;;;;;;3.28;2.97;;;21.20;99.90;;;23.68;71.09;97983.28;5222136;28;20244;-60
2021/06/24 06:40:41;;;;;;;3.42;3.13;;;21.50;99.90;;;24.08;67.82;97982.69;5223391;28;20573;-60
2021/06/24 06:43:15;;;;;;;3.60;3.30;;;21.80;99.90;;;24.04;67.84;97987.03;5213857;28;20223;-57
2021/06/24 06:45:49;;;;;;;3.20;3.00;;;21.90;99.90;;;24.18;63.83;97980.13;5219868;28;20334;-60
2021/06/24 06:48:23;;;;;;;3.10;2.90;;;22.10;99.90;;;24.20;65.85;97983.59;5210742;28;20193;-60
2021/06/24 06:50:57;;;;;;;3.10;2.90;;;22.20;99.90;;;24.46;63.43;97981.13;5208081;28;20193;-59
2021/06/24 06:53:30;;;;;;;3.03;2.83;;;22.20;99.90;;;24.61;67.25;97985.56;5217134;28;20205;-61
2021/06/24 06:56:03;;;;;;;2.63;2.42;;;22.60;99.90;;;25.02;61.57;97979.56;5217979;28;20217;-60
2021/06/24 06:58:36;;;;;;;2.88;2.67;;;23.00;99.90;;;24.91;61.24;97973.44;5220202;28;20712;-63
2021/06/24 07:01:09;;;;;;;3.15;2.85;;;22.80;99.90;;;24.91;60.83;97973.44;5214435;28;20227;-61
2021/06/24 07:03:44;;;;;;;2.97;2.42;;;22.80;99.90;;;25.16;61.25;97979.63;5220765;28;20201;-62
2021/06/24 07:06:17;;;;;;;2.60;2.50;;;23.00;99.90;;;25.23;58.42;97980.47;5214741;28;20222;-63
2021/06/24 07:08:50;;;;;;;2.45;2.33;;;23.20;99.90;;;25.37;59.15;97970.88;5213932;28;20567;-63
2021/06/24 07:11:23;;;;;;;2.80;2.50;;;23.00;99.90;;;24.88;58.32;97971.69;5212239;28;20211;-63
2021/06/24 07:13:57;;;;;;;2.63;2.42;;;22.90;99.90;;;25.37;59.40;97977.00;5211968;28;20296;-63
2021/06/24 07:16:30;;;;;;;2.35;2.20;;;22.90;99.90;;;24.63;60.57;97977.72;5216606;28;20719;-62
2021/06/24 07:19:04;;;;;;;2.95;2.75;;;22.40;99.90;;;24.27;62.15;97984.53;5220771;28;20245;-62
2021/06/24 07:21:37;;;;;;;2.70;2.53;;;22.20;99.90;;;24.57;61.26;97978.56;5209319;28;20205;-65
2021/06/24 07:24:11;;;;;;;2.85;2.65;;;22.70;99.90;;;24.83;59.63;97969.94;5224686;28;20231;-62
2021/06/24 07:26:44;;;;;;;2.47;2.30;;;23.10;99.90;;;25.16;59.34;97977.88;5219477;28;20232;-64
2021/06/24 07:29:19;;;;;;;2.33;2.20;;;23.40;99.90;;;25.17;56.88;97981.34;5211774;28;20564;-63
2021/06/24 07:31:53;;;;;;;2.80;2.60;;;23.40;99.90;;;25.32;58.83;97970.00;5213636;28;20300;-64
2021/06/24 07:34:27;;;;;;;2.47;2.33;;;23.50;99.90;;;25.55;59.81;97972.63;5214721;28;20203;-63
2021/06/24 07:37:00;;;;;;;2.35;2.25;;;23.70;99.90;;;25.45;57.11;97969.16;5215647;28;20235;-63
2021/06/24 07:39:33;;;;;;;2.30;2.20;;;23.70;99.90;;;25.53;59.03;97970.03;5218475;28;20274;-64
2021/06/24 07:42:07;;;;;;;2.40;2.17;;;24.00;99.90;;;25.40;57.83;97973.50;5220073;28;20565;-66
2021/06/24 07:44:40;;;;;;;2.15;2.05;;;23.70;99.90;;;25.90;57.91;97975.25;5222273;28;20612;-64
2021/06/24 07:47:15;;;;;;;2.28;2.10;;;23.80;99.90;;;26.29;56.42;97975.97;5214879;28;20634;-64
2021/06/24 07:49:49;;;;;;;2.45;2.00;;;24.40;99.90;;;26.83;52.98;97974.00;5223974;28;20193;-64
2021/06/24 07:52:22;;;;;;;2.42;2.03;;;24.80;99.90;;;26.48;53.64;97964.53;5220420;28;20219;-65
2021/06/24 07:54:55;;;;;;;1.80;1.70;;;24.70;99.90;;;27.08;52.26;97966.00;5221326;28;20208;-64
2021/06/24 07:57:29;;;;;;;2.03;1.92;;;24.70;99.90;;;27.03;50.91;97965.16;5218928;28;20715;-65
2021/06/24 08:00:02;;;;;;;1.80;1.70;;;24.70;99.90;;;26.25;55.02;97966.41;5218918;28;20704;-65
2021/06/24 08:02:41;;;;;;;2.17;1.85;;;24.10;99.90;;;26.07;55.22;97967.34;5225386;28;20250;-65
2021/06/24 08:05:16;;;;;;;2.15;1.98;;;23.90;99.90;;;27.17;52.99;97973.81;5207560;28;20561;-67
2021/06/24 08:07:49;;;;;;;2.08;1.98;;;24.60;99.90;;;27.60;48.94;97969.09;5217631;28;20216;-64
2021/06/24 08:10:23;;;;;;;2.10;1.90;;;24.90;99.90;;;27.12;51.79;97967.69;5222523;28;20312;-64
2021/06/24 08:12:56;;;;;;;1.80;1.70;;;24.90;99.90;;;27.72;51.05;97973.34;5211922;28;20197;-65
2021/06/24 08:15:30;;;;;;;2.10;2.00;;;25.30;99.90;;;28.69;48.76;97960.00;5214935;28;20205;-65
2021/06/24 08:18:04;;;;;;;1.67;1.58;;;25.80;99.90;;;29.06;46.79;97972.69;5223752;28;20211;-65
2021/06/24 08:20:39;;;;;;;1.70;1.60;;;26.40;99.90;;;29.89;43.61;97966.03;5213005;28;20589;-65
2021/06/24 08:23:12;;;;;;;1.95;1.67;;;26.40;99.90;;;29.90;44.14;97967.78;5216701;28;20188;-66
2021/06/24 08:25:46;;;;;;;1.77;1.67;;;26.60;99.90;;;29.51;47.43;97972.84;5218316;28;20288;-66
2021/06/24 08:28:19;;;;;;;1.70;1.60;;;26.90;99.90;;;29.14;46.66;97981.34;5217042;28;20284;-65
2021/06/24 08:30:55;;;;;;;1.80;1.67;;;26.80;99.90;;;28.83;48.28;97977.38;5220323;28;20280;-65
2021/06/24 08:33:28;;;;;;;1.75;1.60;;;26.40;99.90;;;28.51;45.58;97984.81;5219994;28;20202;-66
2021/06/24 08:36:04;;;;;;;1.85;1.75;;;26.20;99.90;;;27.73;47.55;97987.34;5219103;28;20219;-65
2021/06/24 08:38:37;;;;;;;1.85;1.75;;;25.60;99.90;;;27.71;47.01;97987.38;5217123;28;20205;-65
2021/06/24 08:41:13;;;;;;;2.47;1.88;;;25.30;99.90;;;27.53;49.76;97992.81;5225843;28;20195;-65
2021/06/24 08:43:48;;;;;;;1.75;1.65;;;25.20;99.90;;;27.57;48.76;97998.00;5213823;28;20204;-66
2021/06/24 08:46:21;;;;;;;1.63;1.52;;;25.30;99.90;;;27.51;48.46;97997.19;5224542;28;20212;-66
2021/06/24 08:48:56;;;;;;;1.60;1.50;;;25.20;99.90;;;27.61;49.09;97993.59;5214938;28;20220;-65
2021/06/24 08:51:30;;;;;;;1.80;1.70;;;25.20;99.90;;;27.32;49.45;98001.72;5224233;28;20200;-65
2021/06/24 08:54:04;;;;;;;1.70;1.60;;;25.60;99.90;;;27.36;49.42;97998.19;5212757;28;20204;-65
2021/06/24 08:56:37;;;;;;;2.00;1.90;;;25.60;99.90;;;27.20;50.99;98002.69;5219036;28;20708;-65
2021/06/24 08:59:10;;;;;;;1.90;1.75;;;25.30;99.90;;;26.94;48.57;98000.19;5221683;28;20233;-66
2021/06/24 09:01:51;;;;;;;1.95;1.80;;;25.00;99.90;;;26.60;50.59;98000.38;5217554;28;20230;-65
2021/06/24 09:04:29;;;;;;;2.00;1.90;;;24.70;99.90;;;26.56;49.17;98006.50;5208776;28;20673;-65
2021/06/24 09:07:09;;;;;;;1.92;1.83;;;24.40;99.90;;;26.09;51.22;98011.88;5216722;28;20216;-65
2021/06/24 09:09:50;;;;;;;1.80;1.70;;;23.90;99.90;;;25.91;52.33;98018.03;5210171;28;20200;-65
2021/06/24 09:12:25;;;;;;;2.10;2.00;;;23.80;99.90;;;25.62;52.71;98021.50;5219775;28;20224;-64
2021/06/24 09:15:02;;;;;;;2.17;1.80;;;23.70;99.90;;;25.73;52.87;98014.53;5215479;28;20203;-65
2021/06/24 09:17:37;;;;;;;2.03;1.92;;;23.70;99.90;;;25.87;52.22;98027.63;5209365;28;20225;-65
2021/06/24 09:20:33;;;;;;;2.00;1.75;;;24.10;99.90;;;26.24;51.95;98032.78;5221401;28;20299;-64
2021/06/24 09:23:13;;;;;;;1.80;1.70;;;24.60;99.90;;;26.40;51.97;98039.72;5216272;28;20289;-65
2021/06/24 09:25:52;;;;;;;2.42;2.10;;;24.70;99.90;;;26.56;52.78;98030.09;5215957;28;20201;-64
2021/06/24 09:28:37;;;;;;;1.92;1.83;;;24.90;99.90;;;26.83;51.32;98030.84;5225391;28;20211;-65
2021/06/24 09:31:26;;;;;;;2.10;2.00;;;25.10;99.90;;;26.70;50.09;98030.94;5220694;28;20572;-65
2021/06/24 09:34:08;;;;;;;2.08;1.98;;;24.90;99.90;;;26.69;50.12;98025.66;5214069;28;20205;-64
2021/06/24 09:36:44;;;;;;;1.80;1.70;;;24.90;99.90;;;26.58;49.93;98024.84;5224737;28;20236;-65
2021/06/24 09:39:36;;;;;;;2.90;2.03;;;24.80;99.90;;;26.24;51.71;98028.44;5215805;28;20570;-65
2021/06/24 09:42:13;;;;;;;3.53;2.10;;;24.70;99.90;;;25.56;54.54;98030.22;5223902;28;20295;-65
2021/06/24 09:44:46;;;;;;;1.88;1.77;;;24.10;99.90;;;25.53;54.25;98026.75;5224629;28;20192;-64
2021/06/24 09:47:24;;;;;;;2.30;2.10;;;23.90;99.90;;;25.32;53.65;98017.13;5221365;28;20578;-65
2021/06/24 09:50:02;;;;;;;2.00;1.90;;;23.60;99.90;;;25.39;55.26;98024.13;5218142;28;20533;-65
2021/06/24 09:52:38;;;;;;;2.30;2.20;;;23.60;99.90;;;25.39;55.46;98029.34;5226304;28;20595;-65
2021/06/24 09:55:15;;;;;;;2.58;2.38;;;23.70;99.90;;;25.48;54.74;98034.59;5231013;28;20279;-64
2021/06/24 09:57:51;;;;;;;2.67;2.58;;;23.50;99.90;;;25.43;55.72;98032.84;5212972;28;20704;-65
2021/06/24 10:00:28;;;;;;;2.38;2.17;;;23.40;99.90;;;25.22;54.90;98033.69;5225583;28;20303;-65
2021/06/24 10:03:07;;;;;;;2.53;2.28;;;23.50;99.90;;;24.88;57.18;98028.34;5217097;28;20208;-65
2021/06/24 10:05:41;;;;;;;2.40;2.30;;;23.40;99.90;;;24.79;57.80;98030.94;5231712;28;20200;-65
2021/06/24 10:08:15;;;;;;;2.83;2.50;;;23.30;99.90;;;24.88;57.24;98031.84;5218719;28;20203;-65
2021/06/24 10:10:49;;;;;;;2.60;2.45;;;23.30;99.90;;;24.96;56.39;98029.25;5223933;28;20669;-65
2021/06/24 10:13:29;;;;;;;2.63;2.53;;;23.30;99.90;;;25.12;56.89;98024.91;5223185;28;20204;-65
2021/06/24 10:16:03;;;;;;;3.35;2.70;;;23.30;99.90;;;24.93;58.32;98034.47;5220149;28;20239;-65
2021/06/24 10:18:37;;;;;;;2.90;2.70;;;23.40;99.90;;;24.94;56.88;98037.06;5231559;28;20661;-65
2021/06/24 10:21:11;;;;;;;2.53;2.40;;;23.30;99.90;;;25.01;55.80;98038.00;5215945;28;20221;-65
2021/06/24 10:23:52;;;;;;;2.55;2.45;;;23.30;99.90;;;25.15;55.89;98035.41;5211883;28;20201;-65
2021/06/24 10:26:28;;;;;;;2.30;2.20;;;23.30;99.90;;;25.28;53.32;98037.19;5221039;28;20220;-65
2021/06/24 10:29:14;;;;;;;3.53;2.42;;;23.60;99.90;;;24.99;54.76;98031.88;5221186;28;20215;-65
2021/06/24 10:31:49;;;;;;;2.47;2.38;;;23.50;99.90;;;24.95;55.38;98033.63;5218348;28;20197;-65
2021/06/24 10:34:23;;;;;;;3.17;2.85;;;23.40;99.90;;;25.25;55.99;98021.47;5219404;28;20201;-65
2021/06/24 10:37:12;;;;;;;2.63;2.42;;;23.60;99.90;;;25.38;54.35;98022.34;5212280;28;20221;-65
2021/06/24 10:39:45;;;;;;;2.90;2.70;;;23.80;99.90;;;25.54;53.84;98024.13;5213341;28;20190;-65
2021/06/24 10:42:21;;;;;;;2.45;2.20;;;24.10;99.90;;;25.71;54.07;98025.88;5211324;28;20196;-65
2021/06/24 10:45:00;;;;;;;2.60;2.40;;;24.20;99.90;;;25.69;53.69;98017.13;5226413;28;20619;-65